Time;durP1;ratioP1;P1;durP2;ratioP2;P2;SDS_P1;SDS_P2;PMS_P1;PMS_P2;Temp;Humidity;BMP_temperature;BMP_pressure;BME280_temperature;BME280_humidity;BME280_pressure;Samples;Min_cycle;Max_cycle;Signal;HPM_P1;HPM_P2
2023/04/18 00:00:34;;;;;;;0.17;0.17;;;;;;;15.20;37.73;102885.44;5069535;28;20165;-64
2023/04/18 00:02:59;;;;;;;0.10;0.10;;;;;;;14.59;38.37;102883.78;5075548;28;20041;-65
2023/04/18 00:05:25;;;;;;;0.13;0.13;;;;;;;14.52;38.89;102881.06;5070159;28;20039;-64
2023/04/18 00:07:51;;;;;;;0.10;0.10;;;;;;;14.52;38.67;102881.06;5069745;28;20025;-66
2023/04/18 00:10:17;;;;;;;0.20;0.20;;;;;;;14.81;38.38;102875.34;5070653;28;20442;-64
2023/04/18 00:12:42;;;;;;;0.10;0.10;;;;;;;14.68;38.58;102875.28;5069989;28;20064;-65
2023/04/18 00:15:08;;;;;;;0.20;0.20;;;;;;;14.43;38.88;102884.97;5069685;28;20059;-64
2023/04/18 00:17:37;;;;;;;0.10;0.10;;;;;;;14.66;38.03;102874.66;5069798;28;20090;-65
2023/04/18 00:20:03;;;;;;;0.20;0.20;;;;;;;14.72;37.92;102862.19;5072635;28;20369;-64
2023/04/18 00:22:29;;;;;;;0.20;0.20;;;;;;;14.67;38.05;102873.63;5073096;28;20039;-65
2023/04/18 00:24:54;;;;;;;0.20;0.20;;;;;;;14.65;37.76;102872.16;5073569;28;20032;-64
2023/04/18 00:27:20;;;;;;;0.20;0.20;;;;;;;14.60;38.09;102867.34;5073433;28;20100;-65
2023/04/18 00:29:46;;;;;;;0.20;0.20;;;;;;;14.02;38.57;102876.78;5065396;28;20101;-65
2023/04/18 00:32:12;;;;;;;0.10;0.10;;;;;;;14.54;38.08;102867.34;5057313;28;20036;-64
2023/04/18 00:34:37;;;;;;;0.10;0.10;;;;;;;15.00;37.28;102867.50;5064660;28;20021;-65
2023/04/18 00:37:03;;;;;;;0.30;0.30;;;;;;;14.77;37.51;102868.66;5071133;28;20101;-64
2023/04/18 00:39:28;;;;;;;0.15;0.15;;;;;;;14.73;37.70;102866.56;5059312;28;20131;-66
2023/04/18 00:41:54;;;;;;;0.20;0.20;;;;;;;14.57;38.25;102865.06;5053568;28;20037;-65
2023/04/18 00:44:19;;;;;;;0.20;0.20;;;;;;;14.79;37.51;102860.34;5052639;28;20036;-64
2023/04/18 00:46:44;;;;;;;0.20;0.20;;;;;;;14.38;38.22;102868.50;5053867;28;20029;-64
2023/04/18 00:49:10;;;;;;;0.20;0.20;;;;;;;14.66;38.22;102869.22;5053112;28;20124;-64
2023/04/18 00:51:37;;;;;;;0.20;0.20;;;;;;;14.62;38.30;102867.16;5054491;28;20508;-63
2023/04/18 00:54:04;;;;;;;0.10;0.10;;;;;;;14.83;38.38;102867.84;5053369;28;20110;-64
2023/04/18 00:56:30;;;;;;;0.25;0.25;;;;;;;14.74;37.96;102858.22;5053020;28;20447;-66
2023/04/18 00:58:55;;;;;;;0.13;0.13;;;;;;;14.50;38.64;102860.66;5052555;28;20132;-64
2023/04/18 01:01:21;;;;;;;0.10;0.10;;;;;;;14.50;38.24;102860.66;5053502;28;20525;-64
2023/04/18 01:03:46;;;;;;;0.20;0.20;;;;;;;14.34;38.35;102863.69;5053249;28;20310;-66
2023/04/18 01:06:11;;;;;;;0.15;0.15;;;;;;;14.42;38.50;102858.97;5053148;28;20485;-64
2023/04/18 01:08:37;;;;;;;0.17;0.17;;;;;;;14.36;38.54;102861.63;5052964;28;20036;-64
2023/04/18 01:11:02;;;;;;;0.20;0.20;;;;;;;14.29;38.94;102866.19;5052797;28;20450;-64
2023/04/18 01:13:28;;;;;;;0.10;0.10;;;;;;;14.07;38.90;102860.00;5053552;28;20352;-64
2023/04/18 01:15:54;;;;;;;0.20;0.20;;;;;;;14.17;39.20;102849.63;5052600;28;20123;-64
2023/04/18 01:18:21;;;;;;;0.28;0.28;;;;;;;14.03;39.17;102850.59;5052751;28;20401;-64
2023/04/18 01:20:51;;;;;;;0.32;0.32;;;;;;;14.10;39.15;102846.06;5052846;28;20044;-66
2023/04/18 01:23:18;;;;;;;0.10;0.10;;;;;;;14.23;39.05;102851.53;5052309;28;20040;-64
2023/04/18 01:25:45;;;;;;;0.20;0.20;;;;;;;13.66;39.97;102849.09;5053016;28;20384;-65
2023/04/18 01:28:13;;;;;;;0.20;0.20;;;;;;;14.00;39.38;102846.44;5053055;28;20056;-67
2023/04/18 01:30:39;;;;;;;0.20;0.20;;;;;;;14.08;38.51;102845.44;5052287;28;20045;-64
2023/04/18 01:33:05;;;;;;;0.20;0.20;;;;;;;14.05;38.99;102843.13;5052582;28;20040;-66
2023/04/18 01:35:31;;;;;;;0.30;0.30;;;;;;;14.14;38.77;102850.03;5052544;28;20074;-63
2023/04/18 01:37:57;;;;;;;0.20;0.20;;;;;;;13.74;39.44;102843.53;5052278;28;20036;-65
2023/04/18 01:40:23;;;;;;;0.10;0.10;;;;;;;13.03;40.87;102849.13;5052970;28;20025;-64
2023/04/18 01:42:49;;;;;;;0.30;0.20;;;;;;;13.60;40.19;102847.16;5052169;28;20044;-65
2023/04/18 01:45:15;;;;;;;0.28;0.28;;;;;;;13.96;39.47;102847.00;5052544;28;20397;-64
2023/04/18 01:47:41;;;;;;;0.20;0.20;;;;;;;13.30;40.17;102840.28;5052119;28;20067;-64
2023/04/18 01:50:07;;;;;;;0.20;0.20;;;;;;;13.44;40.20;102844.78;5051227;28;20319;-64
2023/04/18 01:52:32;;;;;;;0.20;0.20;;;;;;;13.62;40.45;102839.69;5053668;28;20028;-65
2023/04/18 01:54:58;;;;;;;0.20;0.20;;;;;;;13.39;40.71;102841.81;5052185;28;20112;-65
2023/04/18 01:57:23;;;;;;;0.28;0.28;;;;;;;13.81;40.03;102841.75;5051821;28;20133;-65
2023/04/18 01:59:49;;;;;;;0.13;0.13;;;;;;;13.34;40.58;102846.97;5051992;28;20124;-64
2023/04/18 02:02:14;;;;;;;0.32;0.32;;;;;;;13.98;39.71;102842.25;5053244;28;20395;-65
2023/04/18 02:04:40;;;;;;;0.10;0.10;;;;;;;13.74;39.98;102840.00;5055067;28;20029;-65
2023/04/18 02:07:05;;;;;;;0.30;0.30;;;;;;;13.65;40.25;102850.13;5054697;28;20033;-64
2023/04/18 02:09:30;;;;;;;0.30;0.30;;;;;;;13.82;40.10;102851.50;5054075;28;20083;-65
2023/04/18 02:11:58;;;;;;;0.20;0.20;;;;;;;13.73;40.33;102849.16;5054531;28;20029;-65
2023/04/18 02:14:25;;;;;;;0.20;0.20;;;;;;;13.93;39.99;102839.31;5053006;28;20575;-64
2023/04/18 02:16:50;;;;;;;0.32;0.32;;;;;;;13.98;40.43;102845.78;5051688;28;20074;-65
2023/04/18 02:19:15;;;;;;;0.20;0.20;;;;;;;13.18;42.23;102853.47;5051442;28;20556;-64
2023/04/18 02:21:43;;;;;;;0.20;0.20;;;;;;;13.77;40.44;102851.28;5051884;28;20115;-65
2023/04/18 02:24:08;;;;;;;0.20;0.20;;;;;;;13.55;40.78;102852.34;5051668;28;20040;-64
2023/04/18 02:26:34;;;;;;;0.20;0.20;;;;;;;13.43;41.21;102855.75;5051268;28;20044;-64
2023/04/18 02:28:59;;;;;;;0.17;0.17;;;;;;;12.70;42.83;102850.63;5051296;28;20033;-64
2023/04/18 02:31:24;;;;;;;0.22;0.22;;;;;;;13.33;41.80;102850.69;5052096;28;20196;-65
2023/04/18 02:33:50;;;;;;;0.20;0.20;;;;;;;13.56;41.44;102853.19;5051218;28;20035;-65
2023/04/18 02:36:15;;;;;;;0.15;0.15;;;;;;;12.92;43.10;102855.88;5051632;28;20041;-66
2023/04/18 02:38:40;;;;;;;0.20;0.20;;;;;;;13.27;42.65;102848.75;5051175;28;20037;-66
2023/04/18 02:41:06;;;;;;;0.20;0.20;;;;;;;13.57;41.87;102854.84;5050860;28;20035;-64
2023/04/18 02:43:32;;;;;;;0.20;0.20;;;;;;;13.10;43.62;102853.59;5051437;28;20031;-66
2023/04/18 02:45:57;;;;;;;0.22;0.22;;;;;;;13.51;41.96;102845.66;5050073;28;20041;-65
2023/04/18 02:48:22;;;;;;;0.10;0.10;;;;;;;13.21;43.25;102855.78;5051340;28;20063;-65
2023/04/18 02:50:48;;;;;;;0.10;0.10;;;;;;;13.30;43.40;102851.09;5051266;28;20025;-63
2023/04/18 02:53:13;;;;;;;0.20;0.20;;;;;;;13.53;42.78;102853.56;5050947;28;20048;-66
2023/04/18 02:55:39;;;;;;;0.35;0.35;;;;;;;13.24;43.68;102857.25;5051575;28;20035;-64
2023/04/18 02:58:04;;;;;;;0.20;0.20;;;;;;;13.72;42.40;102851.00;5050680;28;20136;-65
2023/04/18 03:00:29;;;;;;;0.20;0.20;;;;;;;13.49;43.20;102849.56;5050805;28;20041;-64
2023/04/18 03:02:55;;;;;;;0.13;0.13;;;;;;;13.50;43.42;102849.41;5051285;28;20041;-65
2023/04/18 03:05:20;;;;;;;0.20;0.20;;;;;;;13.51;43.99;102851.06;5051318;28;20119;-65
2023/04/18 03:07:46;;;;;;;0.20;0.20;;;;;;;13.58;43.70;102846.53;5050990;28;20109;-65
2023/04/18 03:10:11;;;;;;;0.30;0.30;;;;;;;13.68;43.82;102844.31;5049313;28;20163;-64
2023/04/18 03:12:36;;;;;;;0.10;0.10;;;;;;;13.03;45.37;102843.75;5050731;28;20064;-65
2023/04/18 03:15:02;;;;;;;0.20;0.20;;;;;;;13.25;45.22;102847.31;5050533;28;20075;-66
2023/04/18 03:17:28;;;;;;;0.20;0.20;;;;;;;13.01;45.78;102856.59;5042757;28;20428;-64
2023/04/18 03:19:53;;;;;;;0.30;0.30;;;;;;;12.68;46.47;102853.50;5050582;28;20041;-66
2023/04/18 03:22:19;;;;;;;0.20;0.20;;;;;;;12.68;47.01;102860.75;5050909;28;20107;-63
2023/04/18 03:24:44;;;;;;;0.30;0.30;;;;;;;12.45;48.39;102855.53;5050348;28;20033;-64
2023/04/18 03:27:11;;;;;;;0.30;0.30;;;;;;;12.43;48.45;102849.47;5050408;28;20400;-65
2023/04/18 03:29:37;;;;;;;0.20;0.20;;;;;;;13.13;46.63;102855.91;5050403;28;20041;-66
2023/04/18 03:32:02;;;;;;;0.22;0.22;;;;;;;12.89;47.40;102855.41;5050175;28;20030;-64
2023/04/18 03:34:28;;;;;;;0.20;0.20;;;;;;;13.44;46.37;102857.44;5050582;28;20103;-64
2023/04/18 03:36:53;;;;;;;0.25;0.25;;;;;;;12.53;48.60;102855.41;5050163;28;20551;-64
2023/04/18 03:39:18;;;;;;;0.10;0.10;;;;;;;12.81;48.28;102853.69;5049834;28;20124;-63
2023/04/18 03:41:44;;;;;;;0.30;0.30;;;;;;;13.05;47.60;102861.44;5050416;28;20123;-64
2023/04/18 03:44:09;;;;;;;0.30;0.30;;;;;;;12.98;47.95;102862.34;5049011;28;20279;-65
2023/04/18 03:46:35;;;;;;;0.10;0.10;;;;;;;13.47;46.84;102865.97;5050566;28;20044;-63
2023/04/18 03:49:00;;;;;;;0.20;0.20;;;;;;;13.45;46.97;102859.94;5049859;28;20036;-64
2023/04/18 03:51:26;;;;;;;0.30;0.30;;;;;;;13.71;46.20;102865.56;5051175;28;20568;-64
2023/04/18 03:53:51;;;;;;;0.20;0.20;;;;;;;13.74;45.70;102865.16;5049657;28;20572;-64
2023/04/18 03:56:17;;;;;;;0.20;0.20;;;;;;;13.63;46.02;102864.84;5049837;28;20044;-65
2023/04/18 03:58:42;;;;;;;0.15;0.15;;;;;;;13.74;46.12;102865.16;5050081;28;20390;-65
2023/04/18 04:01:07;;;;;;;0.20;0.20;;;;;;;13.31;46.43;102877.03;5049672;28;20060;-65
2023/04/18 04:03:33;;;;;;;0.20;0.20;;;;;;;13.14;47.66;102875.66;5049922;28;20120;-64
2023/04/18 04:05:58;;;;;;;0.10;0.10;;;;;;;12.83;48.91;102875.91;5049740;28;20120;-65
2023/04/18 04:08:23;;;;;;;0.20;0.20;;;;;;;12.94;48.50;102877.25;5049522;28;20037;-63
2023/04/18 04:10:49;;;;;;;0.20;0.20;;;;;;;12.78;49.24;102878.34;5049333;28;20032;-66
2023/04/18 04:13:14;;;;;;;0.30;0.30;;;;;;;12.78;49.89;102886.41;5055796;28;20103;-66
2023/04/18 04:15:40;;;;;;;0.20;0.20;;;;;;;13.45;47.92;102886.94;5049806;28;20485;-65
2023/04/18 04:18:05;;;;;;;0.10;0.10;;;;;;;13.47;48.05;102875.94;5049932;28;20531;-64
2023/04/18 04:20:31;;;;;;;0.20;0.20;;;;;;;13.55;47.64;102882.06;5049723;28;20436;-68
2023/04/18 04:22:57;;;;;;;0.25;0.25;;;;;;;13.56;47.36;102875.59;5049414;28;20408;-63
2023/04/18 04:25:27;;;;;;;0.10;0.10;;;;;;;13.13;49.01;102879.34;5050542;28;20107;-64
2023/04/18 04:27:53;;;;;;;0.10;0.10;;;;;;;13.48;48.98;102875.78;5049669;28;20090;-65
2023/04/18 04:30:19;;;;;;;0.30;0.30;;;;;;;13.03;49.67;102878.84;5049891;28;20040;-65
2023/04/18 04:32:46;;;;;;;0.22;0.22;;;;;;;12.96;50.01;102870.66;5049750;28;20029;-64
2023/04/18 04:35:11;;;;;;;0.22;0.22;;;;;;;13.98;47.16;102871.97;5049075;28;20044;-64
2023/04/18 04:37:37;;;;;;;0.30;0.30;;;;;;;13.59;48.50;102877.09;5049252;28;20029;-63
2023/04/18 04:40:07;;;;;;;0.13;0.13;;;;;;;13.12;49.60;102883.94;5046214;28;20047;-64
2023/04/18 04:42:34;;;;;;;0.10;0.10;;;;;;;13.10;50.41;102886.00;5048675;28;20067;-64
2023/04/18 04:45:00;;;;;;;0.20;0.20;;;;;;;13.00;51.21;102890.00;5048787;28;20064;-64
2023/04/18 04:47:25;;;;;;;0.20;0.20;;;;;;;13.40;49.43;102888.56;5048833;28;20075;-64
2023/04/18 04:49:51;;;;;;;0.30;0.30;;;;;;;13.12;49.84;102889.34;5048791;28;20487;-65
2023/04/18 04:52:16;;;;;;;0.20;0.20;;;;;;;13.36;50.17;102889.97;5049375;28;20308;-66
2023/04/18 04:54:43;;;;;;;0.25;0.25;;;;;;;13.55;49.62;102890.16;5048806;28;20071;-66
2023/04/18 04:57:09;;;;;;;0.20;0.20;;;;;;;13.35;50.04;102886.44;5048387;28;20056;-65
2023/04/18 04:59:35;;;;;;;0.20;0.20;;;;;;;13.50;49.97;102889.91;5048726;28;20045;-63
2023/04/18 05:02:00;;;;;;;0.30;0.30;;;;;;;13.71;49.70;102892.59;5045833;28;20412;-65
2023/04/18 05:04:25;;;;;;;0.10;0.10;;;;;;;13.38;49.78;102896.03;5047352;28;20039;-66
2023/04/18 05:06:51;;;;;;;0.20;0.20;;;;;;;14.01;48.86;102901.34;5051347;28;20037;-64
2023/04/18 05:09:16;;;;;;;0.10;0.10;;;;;;;13.45;49.90;102892.34;5050506;28;20041;-64
2023/04/18 05:11:41;;;;;;;0.20;0.20;;;;;;;13.59;50.27;102896.84;5051526;28;20494;-65
2023/04/18 05:14:07;;;;;;;0.10;0.10;;;;;;;13.98;49.14;102894.44;5052765;28;20443;-65
2023/04/18 05:16:32;;;;;;;0.10;0.10;;;;;;;13.66;50.31;102895.03;5053293;28;20025;-64
2023/04/18 05:18:57;;;;;;;0.20;0.20;;;;;;;13.77;50.07;102901.78;5052974;28;20029;-65
2023/04/18 05:21:24;;;;;;;0.10;0.10;;;;;;;13.61;50.45;102893.94;5052962;28;20497;-65
2023/04/18 05:23:50;;;;;;;0.30;0.30;;;;;;;13.87;49.75;102908.50;5052825;28;20082;-66
2023/04/18 05:26:15;;;;;;;0.20;0.20;;;;;;;14.38;48.83;102895.56;5053247;28;20045;-64
2023/04/18 05:28:41;;;;;;;0.20;0.20;;;;;;;13.80;50.28;102895.97;5054297;28;20099;-63
2023/04/18 05:31:06;;;;;;;0.20;0.20;;;;;;;13.97;50.03;102897.34;5053040;28;20036;-64
2023/04/18 05:33:32;;;;;;;0.20;0.20;;;;;;;14.43;49.50;102890.38;5052913;28;20033;-64
2023/04/18 05:35:58;;;;;;;0.10;0.10;;;;;;;14.82;47.88;102890.53;5048700;28;20072;-64
2023/04/18 05:38:23;;;;;;;0.25;0.25;;;;;;;14.79;48.09;102900.94;5052216;28;20051;-65
2023/04/18 05:40:54;;;;;;;0.20;0.20;;;;;;;15.09;46.79;102902.28;5052371;28;20104;-64
2023/04/18 05:43:20;;;;;;;0.28;0.28;;;;;;;14.54;48.14;102908.75;5052847;28;20071;-65
2023/04/18 05:45:45;;;;;;;0.13;0.13;;;;;;;14.41;49.13;102905.97;5052182;28;20485;-64
2023/04/18 05:48:11;;;;;;;0.20;0.20;;;;;;;14.35;49.29;102901.34;5052204;28;20040;-66
2023/04/18 05:50:37;;;;;;;0.30;0.30;;;;;;;14.54;48.62;102911.47;5051688;28;20086;-64
2023/04/18 05:53:02;;;;;;;0.20;0.20;;;;;;;14.75;48.22;102914.06;5051658;28;20021;-66
2023/04/18 05:55:28;;;;;;;0.20;0.20;;;;;;;14.79;48.38;102907.19;5052195;28;20096;-64
2023/04/18 05:57:53;;;;;;;0.10;0.10;;;;;;;14.75;48.20;102913.22;5051913;28;20516;-66
2023/04/18 06:00:19;;;;;;;0.20;0.20;;;;;;;14.68;49.23;102909.66;5051962;28;20400;-65
2023/04/18 06:02:44;;;;;;;0.30;0.30;;;;;;;14.42;50.11;102909.50;5052058;28;20029;-65
2023/04/18 06:05:11;;;;;;;0.30;0.30;;;;;;;14.25;50.33;102925.19;5052216;28;20429;-64
2023/04/18 06:07:36;;;;;;;0.30;0.30;;;;;;;14.51;49.84;102914.56;5051407;28;20017;-64
2023/04/18 06:10:02;;;;;;;0.30;0.30;;;;;;;14.59;49.94;102925.22;5051301;28;20037;-65
2023/04/18 06:12:28;;;;;;;0.32;0.32;;;;;;;14.67;49.36;102924.19;5051944;28;20572;-64
2023/04/18 06:14:53;;;;;;;0.20;0.20;;;;;;;14.19;51.19;102917.03;5051839;28;20044;-65
2023/04/18 06:17:20;;;;;;;0.20;0.20;;;;;;;14.41;50.54;102924.91;5051704;28;20036;-65
2023/04/18 06:19:45;;;;;;;0.30;0.30;;;;;;;14.39;50.29;102939.66;5051452;28;20031;-64
2023/04/18 06:22:10;;;;;;;0.20;0.20;;;;;;;14.11;51.85;102937.78;5049265;28;20116;-64
2023/04/18 06:24:36;;;;;;;0.20;0.20;;;;;;;14.43;51.29;102939.06;5050681;28;20029;-67
2023/04/18 06:27:02;;;;;;;0.35;0.35;;;;;;;14.69;50.33;102928.38;5051799;28;20148;-64
2023/04/18 06:29:29;;;;;;;0.38;0.38;;;;;;;14.85;50.33;102933.47;5048242;28;20128;-63
2023/04/18 06:31:56;;;;;;;0.28;0.28;;;;;;;14.81;50.05;102934.91;5051321;28;20066;-64
2023/04/18 06:34:21;;;;;;;0.30;0.30;;;;;;;14.96;49.78;102932.84;5049901;28;20033;-65
2023/04/18 06:36:48;;;;;;;0.30;0.30;;;;;;;15.20;49.00;102933.34;5051571;28;20031;-63
2023/04/18 06:39:13;;;;;;;0.40;0.40;;;;;;;14.24;50.89;102936.22;5051076;28;20527;-64
2023/04/18 06:41:38;;;;;;;0.10;0.10;;;;;;;15.06;49.65;102934.34;5052257;28;20116;-66
2023/04/18 06:44:04;;;;;;;0.20;0.20;;;;;;;15.57;47.55;102941.78;5052635;28;20039;-63
2023/04/18 06:46:29;;;;;;;0.30;0.30;;;;;;;15.05;49.72;102935.38;5052335;28;20067;-65
2023/04/18 06:48:55;;;;;;;0.20;0.20;;;;;;;14.52;51.19;102940.59;5051900;28;20448;-66
2023/04/18 06:51:20;;;;;;;0.10;0.10;;;;;;;14.32;51.59;102942.34;5051693;28;20041;-64
2023/04/18 06:53:46;;;;;;;0.20;0.20;;;;;;;15.17;49.52;102931.06;5051768;28;20079;-64
2023/04/18 06:56:12;;;;;;;0.20;0.20;;;;;;;15.44;48.65;102928.22;5051338;28;20504;-65
2023/04/18 06:58:37;;;;;;;0.20;0.20;;;;;;;15.15;49.32;102939.38;5051473;28;20049;-65
2023/04/18 07:01:03;;;;;;;0.20;0.20;;;;;;;14.76;50.43;102941.94;5058608;28;20060;-65
2023/04/18 07:03:28;;;;;;;0.10;0.10;;;;;;;14.86;50.33;102939.69;5051164;28;20378;-66
2023/04/18 07:05:54;;;;;;;0.20;0.20;;;;;;;14.39;51.37;102940.50;5051168;28;20140;-65
2023/04/18 07:08:19;;;;;;;0.10;0.10;;;;;;;14.47;51.55;102944.91;5050869;28;20033;-66
2023/04/18 07:10:45;;;;;;;0.20;0.20;;;;;;;15.31;50.34;102940.88;5066667;28;20127;-66
2023/04/18 07:13:10;;;;;;;0.20;0.20;;;;;;;15.84;48.47;102934.50;5051082;28;20065;-64
2023/04/18 07:15:35;;;;;;;0.20;0.20;;;;;;;15.26;49.38;102940.66;5051184;28;20064;-64
2023/04/18 07:18:01;;;;;;;0.28;0.28;;;;;;;15.23;49.78;102950.03;5050911;28;20066;-64
2023/04/18 07:20:26;;;;;;;0.30;0.30;;;;;;;15.78;48.47;102948.91;5050779;28;20067;-66
2023/04/18 07:22:52;;;;;;;0.20;0.20;;;;;;;15.06;49.65;102946.00;5050916;28;20394;-64
2023/04/18 07:25:18;;;;;;;0.10;0.10;;;;;;;15.51;48.79;102945.31;5066601;28;20070;-64
2023/04/18 07:27:43;;;;;;;0.28;0.28;;;;;;;14.96;49.97;102948.25;5050455;28;20037;-65
2023/04/18 07:30:09;;;;;;;0.20;0.20;;;;;;;15.18;49.91;102948.97;5050925;28;20047;-65
2023/04/18 07:32:34;;;;;;;0.30;0.30;;;;;;;15.60;48.24;102948.66;5050856;28;20040;-66
2023/04/18 07:35:01;;;;;;;0.28;0.28;;;;;;;15.83;47.63;102946.38;5050588;28;20033;-64
2023/04/18 07:37:26;;;;;;;0.20;0.20;;;;;;;15.44;49.32;102951.78;5051384;28;20036;-64
2023/04/18 07:39:51;;;;;;;0.20;0.20;;;;;;;15.80;48.29;102944.09;5050702;28;20134;-66
2023/04/18 07:42:17;;;;;;;0.20;0.20;;;;;;;16.46;47.18;102952.97;5049964;28;20064;-64
2023/04/18 07:44:43;;;;;;;0.22;0.22;;;;;;;16.56;46.32;102956.13;5050118;28;20472;-65
2023/04/18 07:47:09;;;;;;;0.20;0.20;;;;;;;15.96;47.59;102959.13;5050196;28;20484;-67
2023/04/18 07:49:34;;;;;;;0.20;0.20;;;;;;;15.66;47.80;102959.50;5050504;28;20017;-64
2023/04/18 07:52:00;;;;;;;0.20;0.20;;;;;;;16.61;46.29;102961.72;5048443;28;20033;-64
2023/04/18 07:54:25;;;;;;;0.20;0.20;;;;;;;16.36;47.33;102960.72;5049967;28;20045;-64
2023/04/18 07:56:50;;;;;;;0.20;0.20;;;;;;;17.31;44.40;102956.22;5054496;28;20029;-64
2023/04/18 07:59:16;;;;;;;0.20;0.20;;;;;;;16.74;45.64;102958.16;5052506;28;20048;-65
2023/04/18 08:01:41;;;;;;;0.22;0.22;;;;;;;17.10;45.08;102961.16;5048575;28;20519;-64
2023/04/18 08:04:06;;;;;;;0.20;0.20;;;;;;;17.51;43.98;102962.38;5049716;28;20040;-64
2023/04/18 08:06:33;;;;;;;0.30;0.30;;;;;;;17.25;43.85;102967.13;5049675;28;20497;-64
2023/04/18 08:09:03;;;;;;;0.20;0.20;;;;;;;17.09;44.39;102962.19;5050144;28;20579;-65
2023/04/18 08:11:28;;;;;;;0.20;0.20;;;;;;;16.97;45.13;102963.91;5050506;28;20056;-63
2023/04/18 08:13:53;;;;;;;0.10;0.10;;;;;;;17.06;44.85;102962.63;5050026;28;20381;-65
2023/04/18 08:16:19;;;;;;;0.20;0.20;;;;;;;17.53;43.54;102964.91;5050721;28;20028;-65
2023/04/18 08:18:44;;;;;;;0.20;0.20;;;;;;;17.71;43.02;102966.84;5050255;28;20448;-63
2023/04/18 08:21:10;;;;;;;0.20;0.20;;;;;;;17.59;43.29;102963.19;5050404;28;20040;-64
2023/04/18 08:23:35;;;;;;;0.10;0.10;;;;;;;17.20;44.14;102964.19;5049908;28;20040;-64
2023/04/18 08:26:00;;;;;;;0.30;0.30;;;;;;;16.61;44.96;102962.56;5050081;28;20025;-63
2023/04/18 08:28:26;;;;;;;0.20;0.20;;;;;;;16.65;45.22;102963.81;5051084;28;20283;-64
2023/04/18 08:30:53;;;;;;;0.10;0.10;;;;;;;17.02;44.25;102969.53;5050221;28;20033;-65
2023/04/18 08:33:21;;;;;;;0.10;0.10;;;;;;;17.18;44.19;102972.56;5049955;28;20095;-65
2023/04/18 08:35:46;;;;;;;0.20;0.20;;;;;;;17.54;44.01;102978.25;5050017;28;20037;-65
2023/04/18 08:38:12;;;;;;;0.20;0.20;;;;;;;18.01;43.33;102976.84;5049867;28;20044;-65
2023/04/18 08:40:37;;;;;;;0.20;0.20;;;;;;;18.53;41.32;102985.59;5052179;28;20412;-65
2023/04/18 08:43:08;;;;;;;0.10;0.10;;;;;;;18.73;40.69;102972.59;5053554;28;20517;-68
2023/04/18 08:45:33;;;;;;;0.20;0.20;;;;;;;17.60;42.73;102983.84;5053541;28;20128;-66
2023/04/18 08:48:00;;;;;;;0.20;0.20;;;;;;;18.38;41.12;102986.75;5053729;28;20116;-64
2023/04/18 08:50:26;;;;;;;0.20;0.20;;;;;;;18.20;41.57;102997.59;5052336;28;20646;-64
2023/04/18 08:52:53;;;;;;;0.15;0.15;;;;;;;17.90;42.48;102979.47;5056249;28;20463;-62
2023/04/18 08:55:21;;;;;;;0.30;0.30;;;;;;;17.08;43.63;102976.81;5058924;28;20546;-64
2023/04/18 08:57:48;;;;;;;0.20;0.20;;;;;;;17.53;42.92;102986.66;5053143;28;20080;-64
2023/04/18 09:00:16;;;;;;;0.20;0.20;;;;;;;17.73;42.92;102983.78;5053320;28;20033;-64
2023/04/18 09:02:42;;;;;;;0.17;0.17;;;;;;;18.04;41.55;102979.09;5053462;28;20530;-64
2023/04/18 09:05:16;;;;;;;0.20;0.20;;;;;;;17.31;44.25;102968.97;5053326;28;20044;-65
2023/04/18 09:07:42;;;;;;;0.10;0.10;;;;;;;17.51;43.81;102972.44;5054175;28;20094;-65
2023/04/18 09:10:08;;;;;;;0.10;0.10;;;;;;;17.85;42.45;102971.13;5053360;28;20033;-64
2023/04/18 09:12:49;;;;;;;0.20;0.20;;;;;;;18.37;41.22;102970.66;5053866;28;20040;-65
2023/04/18 09:15:16;;;;;;;0.10;0.10;;;;;;;18.72;40.15;102974.50;5053350;28;20032;-65
2023/04/18 09:17:48;;;;;;;0.10;0.10;;;;;;;18.39;41.69;102972.09;5053105;28;20041;-64
2023/04/18 09:20:38;;;;;;;0.20;0.20;;;;;;;19.09;39.82;102975.28;5051751;28;20040;-65
2023/04/18 09:23:15;;;;;;;0.10;0.10;;;;;;;19.04;40.01;102964.25;5052679;28;20113;-63
2023/04/18 09:25:40;;;;;;;0.10;0.10;;;;;;;19.31;39.67;102968.28;5053569;28;20291;-64
2023/04/18 09:28:22;;;;;;;0.15;0.15;;;;;;;19.37;40.23;102961.09;5068146;28;20548;-64
2023/04/18 09:30:50;;;;;;;0.10;0.10;;;;;;;18.89;40.20;102951.00;5052723;28;20041;-65
2023/04/18 09:33:16;;;;;;;0.20;0.20;;;;;;;17.73;43.15;102965.56;5052626;28;20063;-64
2023/04/18 09:35:42;;;;;;;0.10;0.10;;;;;;;19.22;40.34;102961.50;5052214;28;20029;-63
2023/04/18 09:38:07;;;;;;;0.15;0.15;;;;;;;19.23;40.66;102965.88;5052084;28;20052;-64
2023/04/18 09:40:33;;;;;;;0.10;0.10;;;;;;;19.48;40.26;102968.50;5051229;28;20033;-65
2023/04/18 09:42:59;;;;;;;0.10;0.10;;;;;;;19.48;39.29;102954.84;5052281;28;20029;-65
2023/04/18 09:45:25;;;;;;;0.20;0.20;;;;;;;19.33;39.04;102957.16;5052003;28;20029;-66
2023/04/18 09:47:52;;;;;;;0.10;0.10;;;;;;;19.47;38.75;102945.00;5052225;28;20104;-64
2023/04/18 09:50:19;;;;;;;0.20;0.20;;;;;;;18.81;40.04;102945.06;5059764;28;20031;-64
2023/04/18 09:52:46;;;;;;;0.20;0.20;;;;;;;19.17;40.35;102944.97;5051977;28;20029;-63
2023/04/18 09:55:18;;;;;;;0.10;0.10;;;;;;;18.29;42.22;102941.84;5052026;28;20170;-63
2023/04/18 09:57:45;;;;;;;0.10;0.10;;;;;;;18.98;40.44;102938.75;5051697;28;20049;-64
2023/04/18 10:00:22;;;;;;;0.10;0.10;;;;;;;18.61;40.88;102942.56;5052200;28;20051;-65
2023/04/18 10:03:08;;;;;;;0.10;0.10;;;;;;;19.49;39.72;102948.31;5052001;28;20049;-65
2023/04/18 10:05:35;;;;;;;0.10;0.10;;;;;;;18.65;40.81;102945.66;5052107;28;20033;-67
2023/04/18 10:08:02;;;;;;;0.10;0.10;;;;;;;19.00;40.58;102941.25;5052117;28;20032;-65
2023/04/18 10:10:28;;;;;;;0.15;0.15;;;;;;;19.72;39.19;102942.91;5052015;28;20021;-65
2023/04/18 10:12:58;;;;;;;0.10;0.10;;;;;;;18.90;40.45;102936.34;5066341;28;20500;-65
2023/04/18 10:15:26;;;;;;;0.17;0.17;;;;;;;19.27;39.46;102942.53;5051939;28;20029;-64
2023/04/18 10:17:54;;;;;;;0.20;0.20;;;;;;;19.22;39.37;102948.66;5051770;28;20501;-64
2023/04/18 10:20:22;;;;;;;0.20;0.20;;;;;;;20.42;38.14;102935.63;5051933;28;20117;-65
2023/04/18 10:22:49;;;;;;;0.20;0.20;;;;;;;19.43;40.30;102941.06;5051876;28;20555;-65
2023/04/18 10:25:38;;;;;;;0.20;0.20;;;;;;;19.69;39.42;102940.66;5051724;28;20403;-67
2023/04/18 10:28:05;;;;;;;0.20;0.20;;;;;;;19.80;38.95;102937.13;5069553;28;20032;-66
2023/04/18 10:30:39;;;;;;;0.10;0.10;;;;;;;18.56;42.04;102947.84;5071367;28;20036;-62
2023/04/18 10:33:35;;;;;;;0.10;0.10;;;;;;;20.14;39.02;102944.50;5070982;28;20062;-64
2023/04/18 10:36:02;;;;;;;0.20;0.20;;;;;;;20.32;38.28;102936.22;5057351;28;20401;-66
2023/04/18 10:38:28;;;;;;;0.10;0.10;;;;;;;20.00;39.18;102934.88;5070866;28;20047;-63
2023/04/18 10:41:31;;;;;;;0.10;0.10;;;;;;;21.08;37.35;102926.88;5070784;28;20016;-64
2023/04/18 10:44:06;;;;;;;0.20;0.20;;;;;;;21.68;37.34;102923.34;5070578;28;20478;-65
2023/04/18 10:46:32;;;;;;;0.10;0.10;;;;;;;21.21;36.95;102930.16;5074125;28;20029;-64
2023/04/18 10:49:17;;;;;;;0.10;0.10;;;;;;;21.03;36.80;102932.28;5050956;28;20094;-64
2023/04/18 10:51:44;;;;;;;0.20;0.20;;;;;;;20.86;37.47;102924.81;5051003;28;20529;-65
2023/04/18 10:54:31;;;;;;;0.20;0.20;;;;;;;21.02;37.16;102928.69;5050995;28;20448;-65
2023/04/18 10:57:03;;;;;;;0.10;0.10;;;;;;;20.60;37.75;102925.34;5050495;28;20512;-64
2023/04/18 10:59:31;;;;;;;0.10;0.10;;;;;;;20.88;37.25;102927.28;5050936;28;20083;-65
2023/04/18 11:02:28;;;;;;;0.20;0.20;;;;;;;21.27;37.56;102922.88;5050614;28;20108;-64
2023/04/18 11:04:58;;;;;;;0.20;0.20;;;;;;;21.34;36.65;102923.56;5051060;28;20036;-64
2023/04/18 11:07:41;;;;;;;0.20;0.20;;;;;;;20.99;36.74;102924.50;5051315;28;20487;-65
2023/04/18 11:10:08;;;;;;;0.10;0.10;;;;;;;21.09;37.21;102923.09;5050566;28;20051;-65
2023/04/18 11:12:38;;;;;;;0.20;0.20;;;;;;;20.45;38.15;102924.19;5050827;28;20039;-64
2023/04/18 11:15:09;;;;;;;;;;;;;;;20.29;37.75;102917.56;5051140;28;20129;-71
2023/04/18 11:17:35;;;;;;;0.20;0.20;;;;;;;19.56;39.18;102914.41;5051069;28;20122;-63
2023/04/18 11:20:11;;;;;;;0.10;0.10;;;;;;;20.13;38.66;102912.78;5050826;28;20116;-63
2023/04/18 11:22:45;;;;;;;0.10;0.10;;;;;;;19.36;39.85;102913.88;5051135;28;20041;-64